Thunder radar more information blitzortung!


avvertimento per Neve / Ghiaccio more information rain snow radar


altri nostri siti meteo:

PomeziameteoStazione ufficiale di Pomezia

MeteopomeziaSito sulle condizioni meteo



Vento Inizio validita dal: 14-11-2019 11:00 Fino: 15-11-2019 23:59 Allerta per: Vento Livello: Giallo info button
Neve/Ghiaccio Inizio validita dal: 14-11-2019 11:00 Fino: 16-11-2019 23:59 Allerta per: Neve/Ghiaccio Livello: Giallo info button

Report METAR

   
LIMP - Parma
Dati ricevuti: 14-11-2019 17:50
Molto nuvoloso  
Molto nuvoloso  
   Vento: SE 5.6 km/h
Vento: SE 5.6 km/h
Temperatura: 11°C
P.to Rugiada: 11°C
Umidita: 100%
Barometro: 1007 hPa
Nuvole: Molto nuvoloso
Visibilita: oltre 10 km
dettagli cloud: Molto nuvoloso 4000 ft
LIMP 141650Z 11003KT 9999 BKN040 11/11 Q1007
LIPE - Bologna
Dati ricevuti: 14-11-2019 18:20
Parzialmente nuvoloso  
Parzialmente nuvoloso  
   Vento: SE 7.4 km/h
Vento: SE 7.4 km/h
Temperatura: 10°C
Temperatura Vento: 9°C
P.to Rugiada: 8°C
Umidita: 88%
Barometro: 1006 hPa
Nuvole: Parzialmente nuvoloso
Visibilita: oltre 10 km
dettagli cloud: Poche nuvole 1500 ft,
Parzialmente nuvoloso 7000 ft
LIPE 141720Z 11004KT 9999 FEW015 SCT070 10/08 Q1006
LIPO - Brescia/Montichi
Dati ricevuti: 14-11-2019 17:50
Parzialmente nuvoloso  
Parzialmente nuvoloso  
   Vento: NE 14.8 km/h
Vento: NE 14.8 km/h
Temperatura: 11°C
P.to Rugiada: 4°C
Umidita: 62%
Barometro: 1007 hPa
Nuvole: Parzialmente nuvoloso
Visibilita: oltre 10 km
dettagli cloud: Parzialmente nuvoloso 6000 ft
LIPO 141650Z 06008KT 9999 SCT060 11/04 Q1007
LIPF - Ferrara
Dati ricevuti: 14-11-2019 17:55
Parzialmente nuvoloso  
Parzialmente nuvoloso  
   Vento: Nord 7.4 km/h
Vento: Nord 7.4 km/h
Temperatura: 11°C
P.to Rugiada: 8°C
Umidita: 82%
Barometro: 1007 hPa
Nuvole: Parzialmente nuvoloso
Visibilita: oltre 10 km
dettagli cloud: Parzialmente nuvoloso 4000 ft
LIPF 141655Z 35004KT 9999 SCT040 11/08 Q1007
LIPL - Ghedi
Dati ricevuti: 14-11-2019 17:55
Poche nuvole  
Poche nuvole  
   Vento: NE 16.7 km/h
Vento: NE 16.7 km/h
Temperatura: 10°C
Temperatura Vento: 8°C
P.to Rugiada: 3°C
Umidita: 62%
Barometro: 1006 hPa
Nuvole: Poche nuvole
Visibilita: oltre 10 km
dettagli cloud: Poche nuvole 4600 ft
LIPL 141655Z 07009KT 9999 FEW046 10/03 Q1006 RMK BKN SCT090 VIS MIN 9999 WIND THR31 06010KT WIND THR13 08010KT BLU
LIVC - Monte Cimone
Dati ricevuti: 14-11-2019 14:55
DATI Obsoleti
Freezing, Nebbia, Parzialmente nuvoloso  
Freezing, Nebbia, Parzialmente nuvoloso  
   Vento: S 37 km/h
Vento: S 37 km/h
Temperatura: -2°C
Temperatura Vento: -10°C
P.to Rugiada: -2°C
Umidita: 100%
Barometro: 1005 hPa
Nuvole: Parzialmente nuvoloso
Visibilita: 0 km
dettagli cloud: Parzialmente nuvoloso
LIVC 141355Z 16020KT 0400 FZFG NSC M02/M02 Q1005 RMK SKC MON INVIS VAL INVIS VIS MIN 0400
LIMS - Piacenza
Dati ricevuti: 14-11-2019 17:55
Molto nuvoloso  
Molto nuvoloso  
   Vento: NO 5.6 km/h
Vento: NO 5.6 km/h
Temperatura: 8°C
Temperatura Vento: 7°C
P.to Rugiada: 8°C
Umidita: 100%
Barometro: 1006 hPa
Nuvole: Molto nuvoloso
Visibilita: oltre 10 km
dettagli cloud: Molto nuvoloso 2000 ft
LIMS 141655Z 32003KT 9999 BKN020 08/08 Q1006
LIMT - Passo della Cisa
Dati ricevuti: 23-09-2019 13:55
DATI Obsoleti
Nebbia  
Nebbia  
   Vento: calma
Vento: calma
Temperatura: 10°C
P.to Rugiada: 10°C
Umidita: 100%
Barometro: 1014 hPa
Visibilita: 0 km
dettagli cloud: Coperto
LIMT 231155Z 00000KT 0000 FG VV/// 10/10 Q1014 RMK MON INVIS VAL INVIS VIS MIN 0000
LIPU - Padova
Dati ricevuti: 14-11-2019 08:00
DATI Obsoleti
Sereno  
Sereno  
   Vento: Variabile 3.7 km/h
Vento: Variabile 3.7 km/h
Temperatura: 3°C
P.to Rugiada: 3°C
Umidita: 100%
Barometro: 1009 hPa
Visibilita: oltre 10 km
dettagli cloud: Sereno
LIPU 140700Z VRB02KT CAVOK 03/03 Q1009

Script sviluppato da  Saratoga-weather.org Adattato per il modello da  Weerstation Leuven

Strumentazione usata:

Stazione meteo
Davis VP2

Programma gestore dati meteo
WVIEW

Server per i dati meteo
Pc-WDS5

Davis VP2

WVIEW

Pc-WDS5